createdAt,value
2018-08-23T00:01:35.994Z,61.30
2018-08-23T00:04:07.341Z,61.30
2018-08-23T00:06:36.590Z,60.90
2018-08-23T00:09:08.016Z,61.10
2018-08-23T00:11:45.108Z,61.30
2018-08-23T00:14:14.147Z,61.40
2018-08-23T00:16:44.279Z,61.30
2018-08-23T00:19:12.668Z,61.60
2018-08-23T00:21:42.619Z,61.40
2018-08-23T00:24:15.216Z,61.70
2018-08-23T00:26:47.655Z,61.90
2018-08-23T00:29:32.729Z,61.80
2018-08-23T00:32:05.383Z,61.90
2018-08-23T00:34:37.865Z,62.00
2018-08-23T00:37:06.761Z,62.70
2018-08-23T00:39:34.997Z,63.00
2018-08-23T00:42:04.411Z,64.00
2018-08-23T00:44:55.553Z,64.40
2018-08-23T00:47:28.149Z,64.40
2018-08-23T00:49:56.540Z,65.90
2018-08-23T00:52:40.880Z,66.10
2018-08-23T00:55:27.397Z,66.30
2018-08-23T00:57:56.072Z,66.90
2018-08-23T01:00:25.890Z,66.60
2018-08-23T01:03:01.546Z,66.60
2018-08-23T01:05:35.576Z,66.60
2018-08-23T01:08:05.013Z,66.50
2018-08-23T01:10:34.128Z,66.20
2018-08-23T01:13:03.148Z,66.20
2018-08-23T01:15:32.378Z,66.10
2018-08-23T01:18:13.597Z,65.90
2018-08-23T01:20:42.996Z,65.60
2018-08-23T01:23:11.958Z,65.30
2018-08-23T01:25:42.335Z,65.20
2018-08-23T01:28:11.228Z,65.20
2018-08-23T01:30:40.010Z,65.20
2018-08-23T01:33:16.060Z,65.20
2018-08-23T01:35:45.894Z,65.50
2018-08-23T01:38:15.452Z,65.40
2018-08-23T01:40:43.981Z,65.50
2018-08-23T01:43:13.079Z,65.70
2018-08-23T01:45:41.296Z,65.50
2018-08-23T01:48:10.479Z,65.20
2018-08-23T01:50:39.605Z,65.40
2018-08-23T01:53:14.760Z,65.50
2018-08-23T01:55:43.422Z,65.40
2018-08-23T01:58:13.397Z,65.70
2018-08-23T02:00:42.000Z,65.50
2018-08-23T02:03:10.585Z,66.20
2018-08-23T02:05:42.284Z,65.50
2018-08-23T02:08:10.833Z,65.30
2018-08-23T02:10:40.675Z,65.60
2018-08-23T02:13:15.745Z,65.50
2018-08-23T02:15:49.807Z,66.10
2018-08-23T02:18:19.191Z,65.90
2018-08-23T02:20:49.600Z,65.60
2018-08-23T02:23:17.856Z,65.50
2018-08-23T02:25:46.120Z,65.50
2018-08-23T02:28:14.640Z,65.40
2018-08-23T02:30:53.584Z,65.30
2018-08-23T02:33:22.318Z,65.50
2018-08-23T02:36:18.868Z,65.50
2018-08-23T02:39:01.172Z,65.80
2018-08-23T02:41:30.152Z,65.80
2018-08-23T02:43:58.584Z,65.80
2018-08-23T02:46:26.784Z,65.80
2018-08-23T02:48:55.294Z,65.90
2018-08-23T02:51:40.349Z,64.70
2018-08-23T02:54:14.076Z,65.20
2018-08-23T02:56:46.388Z,65.50
2018-08-23T02:59:14.942Z,65.70
2018-08-23T03:01:45.624Z,65.40
2018-08-23T03:04:18.172Z,65.90
2018-08-23T03:06:57.720Z,65.80
2018-08-23T03:09:29.128Z,65.90
2018-08-23T03:11:59.630Z,66.30
2018-08-23T03:14:29.101Z,66.70
2018-08-23T03:18:04.531Z,66.90
2018-08-23T03:20:33.945Z,66.70
2018-08-23T03:23:02.327Z,66.60
2018-08-23T03:25:32.748Z,66.10
2018-08-23T03:28:08.043Z,66.10
2018-08-23T03:30:36.476Z,66.10
2018-08-23T03:33:04.725Z,66.10
2018-08-23T03:35:39.333Z,66.10
2018-08-23T03:38:07.572Z,66.60
2018-08-23T03:40:35.820Z,66.30
2018-08-23T03:43:04.225Z,66.20
2018-08-23T03:45:32.473Z,66.90
2018-08-23T03:48:00.782Z,66.00
2018-08-23T03:50:31.530Z,66.60
2018-08-23T03:52:59.732Z,66.70
2018-08-23T03:55:28.299Z,66.30
2018-08-23T03:58:00.812Z,66.10
2018-08-23T04:00:34.519Z,66.20
2018-08-23T04:03:07.353Z,66.10
2018-08-23T04:05:35.881Z,66.00
2018-08-23T04:08:04.543Z,66.20
2018-08-23T04:10:32.746Z,66.20
2018-08-23T04:13:01.225Z,65.40
2018-08-23T04:15:30.524Z,66.00
2018-08-23T04:18:04.607Z,65.70
2018-08-23T04:20:34.889Z,65.20
2018-08-23T04:23:03.624Z,65.70
2018-08-23T04:25:32.098Z,65.80
2018-08-23T04:28:00.578Z,65.40
2018-08-23T04:30:28.999Z,66.00
2018-08-23T04:32:57.878Z,65.50
2018-08-23T04:35:27.244Z,65.50
2018-08-23T04:37:55.806Z,65.50
2018-08-23T04:40:24.013Z,65.90
2018-08-23T04:42:52.383Z,66.10
2018-08-23T04:45:24.038Z,66.40
2018-08-23T04:47:57.869Z,66.20
2018-08-23T04:50:26.277Z,66.80
2018-08-23T04:52:54.649Z,66.90
2018-08-23T04:55:24.020Z,66.70
2018-08-23T04:57:52.437Z,66.60
2018-08-23T05:00:20.637Z,66.80
2018-08-23T05:02:49.188Z,66.60
2018-08-23T05:05:18.020Z,66.30
2018-08-23T05:07:46.669Z,66.40
2018-08-23T05:10:14.949Z,66.10
2018-08-23T05:12:43.245Z,65.90
2018-08-23T05:15:11.864Z,65.80
2018-08-23T05:17:40.513Z,65.60
2018-08-23T05:20:09.255Z,65.30
2018-08-23T05:22:38.363Z,65.20
2018-08-23T05:25:14.648Z,64.70
2018-08-23T05:28:07.772Z,64.30
2018-08-23T05:30:37.261Z,63.10
2018-08-23T05:33:23.925Z,61.90
2018-08-23T05:35:52.611Z,62.20
2018-08-23T05:38:21.480Z,62.60
2018-08-23T05:41:02.132Z,62.90
2018-08-23T05:43:30.508Z,61.80
2018-08-23T05:45:59.975Z,62.20
2018-08-23T05:48:29.617Z,61.80
2018-08-23T05:51:11.576Z,61.70
2018-08-23T05:56:13.524Z,59.00
2018-08-23T05:58:42.313Z,59.50
2018-08-23T06:01:11.648Z,58.90
2018-08-23T06:03:40.280Z,58.70
2018-08-23T06:06:08.746Z,58.40
2018-08-23T06:08:41.073Z,58.30
2018-08-23T06:11:10.751Z,58.60
2018-08-23T06:13:39.448Z,59.00
2018-08-23T06:16:08.861Z,58.10
2018-08-23T06:18:38.924Z,57.70
2018-08-23T06:21:07.633Z,57.80
2018-08-23T06:23:57.608Z,58.30
2018-08-23T06:26:54.092Z,58.10
2018-08-23T06:29:29.710Z,57.60
2018-08-23T06:32:09.863Z,57.20
2018-08-23T06:34:57.432Z,58.10
2018-08-23T06:37:26.296Z,56.70
2018-08-23T06:39:56.131Z,56.40
2018-08-23T06:42:44.615Z,56.60
2018-08-23T06:45:13.206Z,56.10
2018-08-23T06:47:44.013Z,56.10
2018-08-23T06:50:20.716Z,55.40
2018-08-23T06:55:21.526Z,54.40
2018-08-23T06:57:55.038Z,54.90
2018-08-23T07:00:26.391Z,54.90
2018-08-23T07:02:54.992Z,55.00
2018-08-23T07:05:23.480Z,53.10
2018-08-23T07:07:52.722Z,52.80
2018-08-23T07:10:20.948Z,53.30
2018-08-23T07:12:49.428Z,53.20
2018-08-23T07:15:18.406Z,53.00
2018-08-23T07:17:46.893Z,52.60
2018-08-23T07:20:16.085Z,51.50
2018-08-23T07:22:44.944Z,52.00
2018-08-23T07:25:16.609Z,51.50
2018-08-23T07:27:45.203Z,51.50
2018-08-23T07:30:20.992Z,51.10
2018-08-23T07:32:50.627Z,51.10
2018-08-23T07:35:20.849Z,51.70
2018-08-23T07:37:50.665Z,51.30
2018-08-23T07:40:23.287Z,51.30
2018-08-23T07:42:52.783Z,51.60
2018-08-23T07:45:21.402Z,51.80
2018-08-23T07:47:51.111Z,51.90
2018-08-23T07:50:19.458Z,51.50
2018-08-23T07:55:17.452Z,51.20
2018-08-23T07:57:46.084Z,51.60
2018-08-23T08:00:36.481Z,51.50
2018-08-23T08:03:05.142Z,51.90
2018-08-23T08:05:36.979Z,51.90
2018-08-23T08:08:06.824Z,51.60
2018-08-23T08:10:37.525Z,50.90
2018-08-23T08:13:05.887Z,51.30
2018-08-23T08:15:34.179Z,51.80
2018-08-23T08:18:23.527Z,51.10
2018-08-23T08:21:01.662Z,50.60
2018-08-23T08:23:31.212Z,50.70
2018-08-23T08:25:59.425Z,51.10
2018-08-23T08:28:27.989Z,50.70
2018-08-23T08:31:00.778Z,50.80
2018-08-23T08:33:37.109Z,50.60
2018-08-23T08:36:06.268Z,50.90
2018-08-23T08:38:35.308Z,50.90
2018-08-23T08:41:03.761Z,50.00
2018-08-23T08:43:32.011Z,49.30
2018-08-23T08:46:00.718Z,48.60
2018-08-23T08:48:32.317Z,47.60
2018-08-23T08:51:31.865Z,45.70
2018-08-23T08:54:02.569Z,46.40
2018-08-23T08:56:36.675Z,45.10
2018-08-23T08:59:05.084Z,44.10
2018-08-23T09:01:33.300Z,43.40
2018-08-23T09:04:02.014Z,42.80
2018-08-23T09:06:36.121Z,42.60
2018-08-23T09:09:28.860Z,42.50
2018-08-23T09:12:00.806Z,41.70
2018-08-23T09:14:29.496Z,40.90
2018-08-23T09:16:58.816Z,41.50
2018-08-23T09:19:44.205Z,41.50
2018-08-23T09:22:18.446Z,41.50
2018-08-23T09:24:47.102Z,40.80
2018-08-23T09:27:18.000Z,39.40
2018-08-23T09:29:46.832Z,39.90
2018-08-23T09:32:21.273Z,39.60
2018-08-23T09:34:54.677Z,39.00
2018-08-23T09:37:22.867Z,39.10
2018-08-23T09:39:51.228Z,39.10
2018-08-23T09:42:20.457Z,39.30
2018-08-23T09:45:02.007Z,39.80
2018-08-23T09:47:30.712Z,39.90
2018-08-23T09:49:59.710Z,40.50
2018-08-23T09:52:32.447Z,39.80
2018-08-23T09:55:00.648Z,39.80
2018-08-23T09:57:28.955Z,39.00
2018-08-23T09:59:57.261Z,39.50
2018-08-23T10:02:31.394Z,40.00
2018-08-23T10:05:03.681Z,40.40
2018-08-23T10:07:37.493Z,40.50
2018-08-23T10:10:11.521Z,40.50
2018-08-23T10:12:45.382Z,40.30
2018-08-23T10:15:19.336Z,39.80
2018-08-23T10:17:53.209Z,38.90
2018-08-23T10:20:27.185Z,36.20
2018-08-23T10:23:03.161Z,36.80
2018-08-23T10:25:38.623Z,35.80
2018-08-23T10:28:09.133Z,32.50
2018-08-23T10:30:37.748Z,33.30
2018-08-23T10:33:06.572Z,32.80
2018-08-23T10:35:35.726Z,32.20
2018-08-23T10:38:04.530Z,31.70
2018-08-23T10:40:33.077Z,31.00
2018-08-23T10:43:01.689Z,30.60
2018-08-23T10:45:29.946Z,31.10
2018-08-23T10:48:03.872Z,31.10
2018-08-23T10:50:33.179Z,30.40
2018-08-23T10:53:02.004Z,30.90
2018-08-23T10:55:30.249Z,30.30
2018-08-23T10:57:58.428Z,29.00
2018-08-23T11:00:26.645Z,29.50
2018-08-23T11:02:55.150Z,29.20
2018-08-23T11:05:23.507Z,29.40
2018-08-23T11:07:57.365Z,29.50
2018-08-23T11:10:31.391Z,29.80
2018-08-23T11:13:05.332Z,29.90
2018-08-23T11:15:33.792Z,30.30
2018-08-23T11:18:08.150Z,30.60
2018-08-23T11:20:41.933Z,29.60
2018-08-23T11:23:10.339Z,29.90
2018-08-23T11:25:38.652Z,29.80
2018-08-23T11:28:12.742Z,28.80
2018-08-23T11:30:42.422Z,29.20
2018-08-23T11:33:11.199Z,28.40
2018-08-23T11:35:39.413Z,28.80
2018-08-23T11:38:08.620Z,28.70
2018-08-23T11:40:37.939Z,28.00
2018-08-23T11:43:06.117Z,27.70
2018-08-23T11:45:34.944Z,27.40
2018-08-23T11:48:03.171Z,27.70
2018-08-23T11:50:31.636Z,28.50
2018-08-23T11:52:59.867Z,28.70
2018-08-23T11:55:29.015Z,28.20
2018-08-23T11:57:57.627Z,28.70
2018-08-23T12:00:26.109Z,28.50
2018-08-23T12:02:54.533Z,28.50
2018-08-23T12:05:23.485Z,29.20
2018-08-23T12:07:52.984Z,29.40
2018-08-23T12:10:22.670Z,29.50
2018-08-23T12:15:29.598Z,30.00
2018-08-23T12:17:58.184Z,30.60
2018-08-23T12:20:26.829Z,31.10
2018-08-23T12:22:55.111Z,36.90
2018-08-23T12:25:23.289Z,37.90
2018-08-23T12:28:01.961Z,47.20
2018-08-23T12:30:31.647Z,60.00
2018-08-23T12:32:59.870Z,60.10
2018-08-23T12:35:29.366Z,61.80
2018-08-23T12:38:03.425Z,62.80
2018-08-23T12:40:37.558Z,70.90
2018-08-23T12:43:14.078Z,76.10
2018-08-23T12:45:44.017Z,76.20
2018-08-23T12:48:13.561Z,81.30
2018-08-23T12:50:42.947Z,78.60
2018-08-23T12:53:11.362Z,81.20
2018-08-23T12:55:40.392Z,81.20
2018-08-23T12:58:09.305Z,80.30
2018-08-23T13:00:38.571Z,81.00
2018-08-23T13:03:07.436Z,81.80
2018-08-23T13:05:36.315Z,78.90
2018-08-23T13:08:05.623Z,77.60
2018-08-23T13:10:34.586Z,78.10
2018-08-23T13:13:03.301Z,86.60
2018-08-23T13:18:00.433Z,84.40
2018-08-23T13:20:28.938Z,78.80
2018-08-23T13:22:57.282Z,79.70
2018-08-23T13:25:26.245Z,80.70
2018-08-23T13:27:54.534Z,81.70
2018-08-23T13:30:22.749Z,81.20
2018-08-23T13:32:51.310Z,80.30
2018-08-23T13:35:19.907Z,81.00
2018-08-23T13:37:48.676Z,78.40
2018-08-23T13:40:18.778Z,79.70
2018-08-23T13:42:47.994Z,80.60
2018-08-23T13:45:16.687Z,80.20
2018-08-23T13:47:44.922Z,78.40
2018-08-23T13:50:13.117Z,79.00
2018-08-23T13:52:41.574Z,81.30
2018-08-23T13:55:10.390Z,76.60
2018-08-23T13:57:40.125Z,76.40
2018-08-23T14:00:14.671Z,76.40
2018-08-23T14:02:43.202Z,76.60
2018-08-23T14:05:12.398Z,77.10
2018-08-23T14:07:41.822Z,76.40
2018-08-23T14:10:11.125Z,74.40
2018-08-23T14:12:40.041Z,75.10
2018-08-23T14:15:14.360Z,75.50
2018-08-23T14:17:42.824Z,74.40
2018-08-23T14:22:39.430Z,77.20
2018-08-23T14:25:08.018Z,77.70
2018-08-23T14:27:36.479Z,76.40
2018-08-23T14:30:04.939Z,76.00
2018-08-23T14:32:33.725Z,73.90
2018-08-23T14:35:01.921Z,74.60
2018-08-23T14:37:31.345Z,74.90
2018-08-23T14:39:59.730Z,74.70
2018-08-23T14:42:29.003Z,75.20
2018-08-23T14:44:57.327Z,72.20
2018-08-23T14:47:32.067Z,72.20
2018-08-23T14:50:01.039Z,70.10
2018-08-23T14:52:29.908Z,70.70
2018-08-23T14:54:58.316Z,70.90
2018-08-23T14:57:33.131Z,67.80
2018-08-23T15:00:02.377Z,67.90
2018-08-23T15:02:30.715Z,67.50
2018-08-23T15:05:00.207Z,66.90
2018-08-23T15:07:28.867Z,67.10
2018-08-23T15:09:57.475Z,66.90
2018-08-23T15:12:26.277Z,67.20
2018-08-23T15:14:54.699Z,67.60
2018-08-23T15:17:23.389Z,67.50
2018-08-23T15:19:51.828Z,69.00
2018-08-23T15:22:20.621Z,69.60
2018-08-23T15:24:49.533Z,67.50
2018-08-23T15:27:18.467Z,65.80
2018-08-23T15:29:47.072Z,66.40
2018-08-23T15:32:15.344Z,67.60
2018-08-23T15:34:44.084Z,68.40
2018-08-23T15:37:12.389Z,68.30
2018-08-23T15:39:40.597Z,68.90
2018-08-23T15:42:08.970Z,69.20
2018-08-23T15:44:37.390Z,69.10
2018-08-23T15:47:05.759Z,65.50
2018-08-23T15:49:35.436Z,65.50
2018-08-23T15:52:04.164Z,63.90
2018-08-23T15:54:32.424Z,61.80
2018-08-23T15:57:01.177Z,59.00
2018-08-23T15:59:29.516Z,59.50
2018-08-23T16:01:57.945Z,60.80
2018-08-23T16:04:26.246Z,60.10
2018-08-23T16:06:54.602Z,58.80
2018-08-23T16:09:23.898Z,59.10
2018-08-23T16:11:52.212Z,59.60
2018-08-23T16:14:20.487Z,58.40
2018-08-23T16:16:54.923Z,58.80
2018-08-23T16:19:29.004Z,59.90
2018-08-23T16:21:58.441Z,60.60
2018-08-23T16:24:27.656Z,59.80
2018-08-23T16:27:02.830Z,60.30
2018-08-23T16:29:31.326Z,59.80
2018-08-23T16:31:59.930Z,60.00
2018-08-23T16:34:28.420Z,60.60
2018-08-23T16:36:56.763Z,60.00
2018-08-23T16:39:25.672Z,60.60
2018-08-23T16:41:54.631Z,60.70
2018-08-23T16:44:23.136Z,60.60
2018-08-23T16:46:51.412Z,58.40
2018-08-23T16:49:19.793Z,58.80
2018-08-23T16:51:48.213Z,53.60
2018-08-23T16:54:16.753Z,54.00
2018-08-23T16:59:14.701Z,50.90
2018-08-23T17:01:43.724Z,50.20
2018-08-23T17:04:12.295Z,48.70
2018-08-23T17:06:41.529Z,47.20
2018-08-23T17:09:09.940Z,46.70
2018-08-23T17:11:38.405Z,46.60
2018-08-23T17:14:06.710Z,47.30
2018-08-23T17:16:41.291Z,45.90
2018-08-23T17:19:09.664Z,46.40
2018-08-23T17:21:38.884Z,47.00
2018-08-23T17:24:07.185Z,48.10
2018-08-23T17:26:36.289Z,48.80
2018-08-23T17:29:05.153Z,50.40
2018-08-23T17:31:34.128Z,51.80
2018-08-23T17:34:03.056Z,51.70
2018-08-23T17:36:31.368Z,53.40
2018-08-23T17:39:01.038Z,54.50
2018-08-23T17:41:30.155Z,54.90
2018-08-23T17:43:59.345Z,55.80
2018-08-23T17:46:27.681Z,56.10
2018-08-23T17:48:56.212Z,56.70
2018-08-23T17:51:25.081Z,57.40
2018-08-23T17:53:53.923Z,57.90
2018-08-23T17:58:51.785Z,58.30
2018-08-23T18:01:20.187Z,59.10
2018-08-23T18:03:49.297Z,59.70
2018-08-23T18:06:18.319Z,59.90
2018-08-23T18:08:47.052Z,59.90
2018-08-23T18:11:16.000Z,60.60
2018-08-23T18:13:45.244Z,60.00
2018-08-23T18:16:19.380Z,60.60
2018-08-23T18:18:47.872Z,60.50
2018-08-23T18:21:16.651Z,60.50
2018-08-23T18:23:46.098Z,60.40
2018-08-23T18:26:14.954Z,60.60
2018-08-23T18:28:43.504Z,61.20
2018-08-23T18:31:12.349Z,61.90
2018-08-23T18:33:41.661Z,61.50
2018-08-23T18:36:12.046Z,61.60
2018-08-23T18:38:40.865Z,63.90
2018-08-23T18:41:10.722Z,64.70
2018-08-23T18:43:39.364Z,64.00
2018-08-23T18:46:08.560Z,66.00
2018-08-23T18:48:37.282Z,66.10
2018-08-23T18:51:05.931Z,66.70
2018-08-23T18:53:34.540Z,67.40
2018-08-23T18:56:03.264Z,67.90
2018-08-23T18:58:31.674Z,69.10
2018-08-23T19:01:00.466Z,69.70
2018-08-23T19:03:29.640Z,68.90
2018-08-23T19:05:58.700Z,69.50
2018-08-23T19:08:27.040Z,70.30
2018-08-23T19:10:55.936Z,70.00
2018-08-23T19:13:24.586Z,70.20
2018-08-23T19:15:58.852Z,70.10
2018-08-23T19:18:28.393Z,70.00
2018-08-23T19:20:57.333Z,70.60
2018-08-23T19:23:27.762Z,70.00
2018-08-23T19:25:56.501Z,71.60
2018-08-23T19:28:24.908Z,72.20
2018-08-23T19:30:54.604Z,72.10
2018-08-23T19:33:23.451Z,72.60
2018-08-23T19:35:51.817Z,73.00
2018-08-23T19:38:20.169Z,73.50
2018-08-23T19:43:17.112Z,72.50
2018-08-23T19:45:52.439Z,73.60
2018-08-23T19:48:21.311Z,73.90
2018-08-23T19:50:50.487Z,74.30
2018-08-23T19:53:18.809Z,74.20
2018-08-23T19:55:47.222Z,72.10
2018-08-23T19:58:15.489Z,72.80
2018-08-23T20:00:44.193Z,73.30
2018-08-23T20:03:13.266Z,74.30
2018-08-23T20:05:41.637Z,74.90
2018-08-23T20:08:10.697Z,76.20
2018-08-23T20:10:39.937Z,75.50
2018-08-23T20:13:08.639Z,74.60
2018-08-23T20:15:37.008Z,75.20
2018-08-23T20:18:05.678Z,75.50
2018-08-23T20:20:33.928Z,75.50
2018-08-23T20:23:02.490Z,75.20
2018-08-23T20:25:30.916Z,75.90
2018-08-23T20:28:00.336Z,75.40
2018-08-23T20:30:28.927Z,74.70
2018-08-23T20:32:57.579Z,75.10
2018-08-23T20:35:25.771Z,75.10
2018-08-23T20:37:54.400Z,75.30
2018-08-23T20:40:23.007Z,75.90
2018-08-23T20:42:51.351Z,75.30
2018-08-23T20:45:19.638Z,75.80
2018-08-23T20:47:48.175Z,75.80
2018-08-23T20:50:16.786Z,75.70
2018-08-23T20:52:45.523Z,75.80
2018-08-23T20:55:13.827Z,78.00
2018-08-23T20:57:42.502Z,75.10
2018-08-23T21:00:10.795Z,76.50
2018-08-23T21:02:39.710Z,75.70
2018-08-23T21:05:08.667Z,75.70
2018-08-23T21:07:37.603Z,76.10
2018-08-23T21:10:06.075Z,75.70
2018-08-23T21:12:34.648Z,76.00
2018-08-23T21:15:03.027Z,75.50
2018-08-23T21:17:32.259Z,75.60
2018-08-23T21:20:00.828Z,75.50
2018-08-23T21:22:29.541Z,73.70
2018-08-23T21:24:58.293Z,73.30
2018-08-23T21:27:26.606Z,73.10
2018-08-23T21:29:54.917Z,72.70
2018-08-23T21:32:23.261Z,73.10
2018-08-23T21:34:51.763Z,71.60
2018-08-23T21:37:20.542Z,72.10
2018-08-23T21:39:49.561Z,71.10
2018-08-23T21:42:18.172Z,70.30
2018-08-23T21:44:46.658Z,70.10
2018-08-23T21:47:15.524Z,68.70
2018-08-23T21:49:44.071Z,69.10
2018-08-23T21:52:13.445Z,68.50
2018-08-23T21:54:41.887Z,69.10
2018-08-23T21:57:10.306Z,69.40
2018-08-23T21:59:38.864Z,69.10
2018-08-23T22:02:12.956Z,70.40
2018-08-23T22:04:47.366Z,71.70
2018-08-23T22:07:16.337Z,71.30
2018-08-23T22:09:48.430Z,71.90
2018-08-23T22:12:19.335Z,72.50
2018-08-23T22:14:48.090Z,72.30
2018-08-23T22:17:17.124Z,72.70
2018-08-23T22:19:45.968Z,72.40
2018-08-23T22:22:14.707Z,72.50
2018-08-23T22:24:43.649Z,72.70
2018-08-23T22:27:12.280Z,72.70
2018-08-23T22:29:40.594Z,72.40
2018-08-23T22:32:09.269Z,72.90
2018-08-23T22:34:38.020Z,73.60
2018-08-23T22:37:06.855Z,72.80
2018-08-23T22:39:35.460Z,73.00
2018-08-23T22:42:04.019Z,73.20
2018-08-23T22:44:32.671Z,72.30
2018-08-23T22:47:01.025Z,72.30
2018-08-23T22:49:29.760Z,72.30
2018-08-23T22:51:58.413Z,71.80
2018-08-23T22:54:27.228Z,71.20
2018-08-23T22:56:55.725Z,71.90
2018-08-23T22:59:25.762Z,71.90
2018-08-23T23:01:54.367Z,71.90
2018-08-23T23:04:26.078Z,73.00
2018-08-23T23:06:55.982Z,73.10
2018-08-23T23:09:25.460Z,72.50
2018-08-23T23:11:53.886Z,72.50
2018-08-23T23:14:23.092Z,73.00
2018-08-23T23:16:53.687Z,72.70
2018-08-23T23:19:24.216Z,73.10
2018-08-23T23:21:52.648Z,73.50
2018-08-23T23:24:26.860Z,73.50
2018-08-23T23:26:56.338Z,72.90
2018-08-23T23:29:25.372Z,73.50
2018-08-23T23:31:54.279Z,75.00
2018-08-23T23:34:23.328Z,75.00
2018-08-23T23:36:52.931Z,74.40
2018-08-23T23:39:21.651Z,75.00
2018-08-23T23:41:50.588Z,75.00
2018-08-23T23:44:19.102Z,74.00
2018-08-23T23:46:47.389Z,73.50
2018-08-23T23:49:15.795Z,73.80
2018-08-23T23:51:44.070Z,74.10
2018-08-23T23:54:12.529Z,74.40
2018-08-23T23:56:40.865Z,75.00
2018-08-23T23:59:09.962Z,74.30
